Time;durP1;ratioP1;P1;durP2;ratioP2;P2;SDS_P1;SDS_P2;PMS_P1;PMS_P2;Temp;Humidity;BMP_temperature;BMP_pressure;BME280_temperature;BME280_humidity;BME280_pressure;Samples;Min_cycle;Max_cycle;Signal;HPM_P1;HPM_P2
2023/12/19 00:01:33;;;;;;;17.65;8.77;;;;;;;;;;6216335;23;20010;-85
2023/12/19 00:04:19;;;;;;;15.20;7.85;;;;;;;;;;6215766;23;20015;-86
2023/12/19 00:07:04;;;;;;;11.48;7.50;;;;;;;;;;6214863;23;20004;-86
2023/12/19 00:09:51;;;;;;;12.18;7.28;;;;;;;;;;6214786;22;20083;-87
2023/12/19 00:12:37;;;;;;;12.95;7.10;;;;;;;;;;6236954;23;20051;-86
2023/12/19 00:15:22;;;;;;;17.50;6.82;;;;;;;;;;6236986;23;20006;-87
2023/12/19 00:18:07;;;;;;;15.68;7.65;;;;;;;;;;6217824;23;19992;-86
2023/12/19 00:20:53;;;;;;;12.38;7.53;;;;;;;;;;6194783;23;20054;-87
2023/12/19 00:23:39;;;;;;;13.75;7.18;;;;;;;;;;6214353;23;20329;-86
2023/12/19 00:26:24;;;;;;;14.70;7.68;;;;;;;;;;6213914;23;20000;-86
2023/12/19 00:29:10;;;;;;;12.90;6.60;;;;;;;;;;6214109;23;19996;-86
2023/12/19 00:31:55;;;;;;;12.00;6.80;;;;;;;;;;6214504;23;19997;-86
2023/12/19 00:34:40;;;;;;;15.52;6.78;;;;;;;;;;6215031;23;19997;-85
2023/12/19 00:37:25;;;;;;;12.07;6.20;;;;;;;;;;6193314;23;20103;-86
2023/12/19 00:40:12;;;;;;;12.48;5.95;;;;;;;;;;6214027;23;20078;-86
2023/12/19 00:42:57;;;;;;;14.77;6.47;;;;;;;;;;6192127;23;20000;-87
2023/12/19 00:45:42;;;;;;;10.43;5.68;;;;;;;;;;6216435;23;20010;-85
2023/12/19 00:48:27;;;;;;;9.60;4.95;;;;;;;;;;6216255;23;20196;-86
2023/12/19 00:51:12;;;;;;;11.23;6.03;;;;;;;;;;6215881;23;20328;-83
2023/12/19 00:53:58;;;;;;;9.45;5.70;;;;;;;;;;6216408;23;20334;-87
2023/12/19 00:56:45;;;;;;;12.20;5.55;;;;;;;;;;6214510;23;20072;-85
2023/12/19 00:59:30;;;;;;;8.80;4.75;;;;;;;;;;6237289;23;20452;-85
2023/12/19 01:02:16;;;;;;;13.65;6.00;;;;;;;;;;6214245;23;19992;-86
2023/12/19 01:05:01;;;;;;;13.63;6.68;;;;;;;;;;6235978;23;20035;-86
2023/12/19 01:07:46;;;;;;;13.15;5.80;;;;;;;;;;6215345;23;19993;-85
2023/12/19 01:10:32;;;;;;;9.65;5.47;;;;;;;;;;6194918;23;20090;-84
2023/12/19 01:13:18;;;;;;;10.00;5.72;;;;;;;;;;6215377;23;20007;-85
2023/12/19 01:16:03;;;;;;;10.43;5.15;;;;;;;;;;6236237;23;20024;-84
2023/12/19 01:18:48;;;;;;;10.05;5.13;;;;;;;;;;6237360;23;20000;-88
2023/12/19 01:21:34;;;;;;;10.90;5.55;;;;;;;;;;6213978;23;20090;-85
2023/12/19 01:24:19;;;;;;;13.85;5.68;;;;;;;;;;6216510;23;20031;-86
2023/12/19 01:27:04;;;;;;;8.68;4.32;;;;;;;;;;6215883;23;20310;-86
2023/12/19 01:29:49;;;;;;;8.70;5.70;;;;;;;;;;6237346;23;20000;-86
2023/12/19 01:32:35;;;;;;;10.63;6.30;;;;;;;;;;6215338;23;20448;-86
2023/12/19 01:35:20;;;;;;;9.05;5.13;;;;;;;;;;6216013;23;19992;-85
2023/12/19 01:38:05;;;;;;;9.15;4.30;;;;;;;;;;6215182;23;20000;-85
2023/12/19 01:40:52;;;;;;;10.55;4.43;;;;;;;;;;6213549;23;20083;-86
2023/12/19 01:43:37;;;;;;;9.43;4.63;;;;;;;;;;6215882;23;20000;-85
2023/12/19 01:46:22;;;;;;;8.73;4.68;;;;;;;;;;6194243;23;20781;-84
2023/12/19 01:49:07;;;;;;;7.22;4.75;;;;;;;;;;6215006;23;20004;-84
2023/12/19 01:51:52;;;;;;;7.22;4.18;;;;;;;;;;6215563;23;20413;-85
2023/12/19 01:54:39;;;;;;;8.35;3.97;;;;;;;;;;6215984;23;20307;-85
2023/12/19 01:57:24;;;;;;;8.05;4.47;;;;;;;;;;6213837;23;20000;-84
2023/12/19 02:00:13;;;;;;;8.82;4.40;;;;;;;;;;6214379;23;20031;-83
2023/12/19 02:02:58;;;;;;;10.25;3.80;;;;;;;;;;6215826;23;20007;-84
2023/12/19 02:05:43;;;;;;;9.85;4.18;;;;;;;;;;6215236;23;19997;-84
2023/12/19 02:08:29;;;;;;;8.93;4.20;;;;;;;;;;6235438;23;20003;-85
2023/12/19 02:11:14;;;;;;;11.27;4.93;;;;;;;;;;6235800;22;20043;-86
2023/12/19 02:14:00;;;;;;;9.80;5.28;;;;;;;;;;6215630;23;20495;-86
2023/12/19 02:16:46;;;;;;;7.75;3.95;;;;;;;;;;6214140;23;20000;-85
2023/12/19 02:19:31;;;;;;;8.30;4.03;;;;;;;;;;6215078;23;20086;-86
2023/12/19 02:22:16;;;;;;;7.60;4.13;;;;;;;;;;6215506;23;20000;-84
2023/12/19 02:25:01;;;;;;;8.63;4.95;;;;;;;;;;6213924;23;20000;-84
2023/12/19 02:27:47;;;;;;;7.57;4.25;;;;;;;;;;6235383;23;20004;-86
2023/12/19 02:30:34;;;;;;;10.38;5.05;;;;;;;;;;6214583;23;20540;-86
2023/12/19 02:33:20;;;;;;;7.65;3.80;;;;;;;;;;6214304;23;20010;-84
2023/12/19 02:36:05;;;;;;;10.35;4.20;;;;;;;;;;6215103;23;20004;-86
2023/12/19 02:38:50;;;;;;;9.88;3.90;;;;;;;;;;6215337;23;20042;-85
2023/12/19 02:41:36;;;;;;;10.43;3.92;;;;;;;;;;6214944;23;20428;-85
2023/12/19 02:44:21;;;;;;;7.85;3.97;;;;;;;;;;6214828;23;20008;-84
2023/12/19 02:47:06;;;;;;;7.80;3.80;;;;;;;;;;6215194;23;20432;-85
2023/12/19 02:49:51;;;;;;;8.15;3.72;;;;;;;;;;6234456;23;20000;-84
2023/12/19 02:52:37;;;;;;;7.63;3.90;;;;;;;;;;6233742;23;20192;-84
2023/12/19 02:55:22;;;;;;;8.90;4.07;;;;;;;;;;6214370;23;20079;-83
2023/12/19 02:58:07;;;;;;;9.20;3.45;;;;;;;;;;6213730;23;20006;-85
2023/12/19 03:00:52;;;;;;;7.80;4.25;;;;;;;;;;6214690;23;20000;-83
2023/12/19 03:03:41;;;;;;;9.57;3.80;;;;;;;;;;6217251;23;20000;-84
2023/12/19 03:06:27;;;;;;;7.10;3.42;;;;;;;;;;6237481;23;20004;-83
2023/12/19 03:09:12;;;;;;;7.53;3.85;;;;;;;;;;6217446;23;20000;-84
2023/12/19 03:12:03;;;;;;;6.97;3.40;;;;;;;;;;6218532;23;20099;-85
2023/12/19 03:14:48;;;;;;;6.28;3.28;;;;;;;;;;6219192;23;20030;-83
2023/12/19 03:17:33;;;;;;;7.40;3.17;;;;;;;;;;6240218;23;20034;-83
2023/12/19 03:20:18;;;;;;;8.00;3.80;;;;;;;;;;6218007;23;20031;-82
2023/12/19 03:23:04;;;;;;;7.72;3.72;;;;;;;;;;6195971;23;19996;-83
2023/12/19 03:25:49;;;;;;;6.93;3.40;;;;;;;;;;6218264;23;20028;-82
2023/12/19 03:28:35;;;;;;;6.03;3.28;;;;;;;;;;6218548;23;20000;-84
2023/12/19 03:31:21;;;;;;;7.75;3.88;;;;;;;;;;6218723;23;20007;-84
2023/12/19 03:34:06;;;;;;;7.07;3.53;;;;;;;;;;6218366;23;20032;-84
2023/12/19 03:36:51;;;;;;;7.43;3.55;;;;;;;;;;6216829;23;20078;-83
2023/12/19 03:39:36;;;;;;;11.57;3.17;;;;;;;;;;6218855;23;20226;-84
2023/12/19 03:42:22;;;;;;;6.72;3.80;;;;;;;;;;6217883;23;20004;-83
2023/12/19 03:45:08;;;;;;;6.88;3.35;;;;;;;;;;6217026;23;20027;-84
2023/12/19 03:47:53;;;;;;;5.97;3.33;;;;;;;;;;6217708;23;20003;-84
2023/12/19 03:50:38;;;;;;;7.82;3.85;;;;;;;;;;6218563;23;19996;-84
2023/12/19 03:53:23;;;;;;;4.82;2.97;;;;;;;;;;6217954;23;20027;-84
2023/12/19 03:56:08;;;;;;;7.30;3.17;;;;;;;;;;6218142;23;20000;-83
2023/12/19 03:58:54;;;;;;;5.28;3.15;;;;;;;;;;6218602;23;20004;-83
2023/12/19 04:01:45;;;;;;;5.75;3.28;;;;;;;;;;6218359;23;20015;-85
2023/12/19 04:04:30;;;;;;;9.10;3.20;;;;;;;;;;6213924;23;20008;-85
2023/12/19 04:07:16;;;;;;;6.82;3.28;;;;;;;;;;6214215;23;20935;-85
2023/12/19 04:10:01;;;;;;;7.50;3.30;;;;;;;;;;6214472;23;20418;-86
2023/12/19 04:12:46;;;;;;;5.63;2.90;;;;;;;;;;6213799;23;19992;-84
2023/12/19 04:15:31;;;;;;;6.63;2.97;;;;;;;;;;6213640;23;20005;-84
2023/12/19 04:18:17;;;;;;;6.13;2.65;;;;;;;;;;6214678;23;20000;-85
2023/12/19 04:21:05;;;;;;;7.28;3.50;;;;;;;;;;6236652;23;20336;-85
2023/12/19 04:23:50;;;;;;;6.97;3.20;;;;;;;;;;6238008;23;20351;-83
2023/12/19 04:26:36;;;;;;;5.40;2.80;;;;;;;;;;6237855;23;20328;-83
2023/12/19 04:29:21;;;;;;;5.60;3.72;;;;;;;;;;6217628;23;20035;-85
2023/12/19 04:32:06;;;;;;;6.75;2.83;;;;;;;;;;6216914;23;20014;-85
2023/12/19 04:34:51;;;;;;;4.38;2.65;;;;;;;;;;6237517;23;20070;-84
2023/12/19 04:37:37;;;;;;;4.85;2.72;;;;;;;;;;6215903;23;20004;-85
2023/12/19 04:40:22;;;;;;;4.95;3.08;;;;;;;;;;6215634;23;20008;-84
2023/12/19 04:43:07;;;;;;;5.45;3.50;;;;;;;;;;6216239;23;19996;-86
2023/12/19 04:45:52;;;;;;;6.00;3.50;;;;;;;;;;6236353;23;20003;-84
2023/12/19 04:48:37;;;;;;;5.78;3.35;;;;;;;;;;6215165;23;20048;-85
2023/12/19 04:51:23;;;;;;;5.63;3.08;;;;;;;;;;6236469;23;20064;-85
2023/12/19 04:54:08;;;;;;;5.75;3.22;;;;;;;;;;6216133;23;20004;-86
2023/12/19 04:56:54;;;;;;;4.63;2.63;;;;;;;;;;6215851;23;20000;-85
2023/12/19 04:59:39;;;;;;;4.85;2.88;;;;;;;;;;6216151;23;20015;-85
2023/12/19 05:02:24;;;;;;;6.10;3.60;;;;;;;;;;6215649;23;20044;-85
2023/12/19 05:05:09;;;;;;;7.40;3.47;;;;;;;;;;6215801;23;20000;-83
2023/12/19 05:07:54;;;;;;;8.13;3.72;;;;;;;;;;6214343;23;20004;-84
2023/12/19 05:10:39;;;;;;;5.90;2.80;;;;;;;;;;6215987;23;20376;-85
2023/12/19 05:13:28;;;;;;;5.18;2.72;;;;;;;;;;6215586;23;20011;-85
2023/12/19 05:16:17;;;;;;;5.82;2.80;;;;;;;;;;6215269;23;20004;-85
2023/12/19 05:19:02;;;;;;;5.20;2.70;;;;;;;;;;6214756;23;20007;-85
2023/12/19 05:21:47;;;;;;;6.10;2.97;;;;;;;;;;6216070;23;20221;-86
2023/12/19 05:24:34;;;;;;;5.32;2.58;;;;;;;;;;6216791;23;20375;-86
2023/12/19 05:27:19;;;;;;;5.72;3.05;;;;;;;;;;6195093;23;20483;-84
2023/12/19 05:30:06;;;;;;;6.10;3.10;;;;;;;;;;6215040;23;20438;-86
2023/12/19 05:32:51;;;;;;;6.50;3.13;;;;;;;;;;6215716;23;20008;-86
2023/12/19 05:35:36;;;;;;;6.50;3.30;;;;;;;;;;6195654;23;20579;-85
2023/12/19 05:38:22;;;;;;;7.28;3.20;;;;;;;;;;6213798;23;20034;-85
2023/12/19 05:41:08;;;;;;;5.75;3.00;;;;;;;;;;6212047;23;20427;-84
2023/12/19 05:43:59;;;;;;;5.22;2.97;;;;;;;;;;6237269;23;20372;-83
2023/12/19 05:46:45;;;;;;;6.25;2.92;;;;;;;;;;6215797;23;20003;-84
2023/12/19 05:49:30;;;;;;;7.82;3.60;;;;;;;;;;6216031;23;20003;-84
2023/12/19 05:52:15;;;;;;;9.40;4.03;;;;;;;;;;6215818;23;20001;-84
2023/12/19 05:55:00;;;;;;;5.97;3.00;;;;;;;;;;6218904;23;20433;-85
2023/12/19 05:57:46;;;;;;;5.07;2.67;;;;;;;;;;6215944;23;20058;-83
2023/12/19 06:00:31;;;;;;;4.68;2.88;;;;;;;;;;6216218;23;20035;-85
2023/12/19 06:03:17;;;;;;;9.50;2.95;;;;;;;;;;6215756;23;20011;-85
2023/12/19 06:06:03;;;;;;;6.85;2.38;;;;;;;;;;6215476;23;20101;-86
2023/12/19 06:08:49;;;;;;;6.53;3.17;;;;;;;;;;6213561;23;20079;-82
2023/12/19 06:11:34;;;;;;;4.80;2.72;;;;;;;;;;6215033;23;20020;-84
2023/12/19 06:14:19;;;;;;;6.13;2.58;;;;;;;;;;6235585;23;20004;-84
2023/12/19 06:17:04;;;;;;;6.88;2.63;;;;;;;;;;6215971;23;20054;-84
2023/12/19 06:19:49;;;;;;;5.32;3.05;;;;;;;;;;6214747;23;20000;-83
2023/12/19 06:22:35;;;;;;;4.82;2.63;;;;;;;;;;6214418;23;20035;-83
2023/12/19 06:25:21;;;;;;;5.78;3.08;;;;;;;;;;6231825;23;20079;-84
2023/12/19 06:28:06;;;;;;;6.03;2.90;;;;;;;;;;6212305;23;20000;-84
2023/12/19 06:30:52;;;;;;;6.30;2.80;;;;;;;;;;6214135;23;20014;-84
2023/12/19 06:33:37;;;;;;;7.97;3.05;;;;;;;;;;6214316;23;20062;-85
2023/12/19 06:36:26;;;;;;;5.43;2.78;;;;;;;;;;6212851;23;20004;-84
2023/12/19 06:39:11;;;;;;;4.93;2.77;;;;;;;;;;6214461;23;20000;-84
2023/12/19 06:41:56;;;;;;;7.22;3.40;;;;;;;;;;6214325;23;20234;-82
2023/12/19 06:44:42;;;;;;;5.35;2.53;;;;;;;;;;6212784;23;20004;-80
2023/12/19 06:47:30;;;;;;;6.05;2.78;;;;;;;;;;6214581;23;20004;-83
2023/12/19 06:50:16;;;;;;;6.07;2.80;;;;;;;;;;6215085;23;20421;-79
2023/12/19 06:53:02;;;;;;;6.28;2.78;;;;;;;;;;6211338;23;20054;-83
2023/12/19 06:55:47;;;;;;;7.28;3.70;;;;;;;;;;6188775;23;20003;-81
2023/12/19 06:58:32;;;;;;;5.38;2.85;;;;;;;;;;6214599;23;20048;-82
2023/12/19 07:01:18;;;;;;;7.68;3.78;;;;;;;;;;6212678;23;20062;-82
2023/12/19 07:04:03;;;;;;;5.72;2.97;;;;;;;;;;6216411;23;20000;-84
2023/12/19 07:06:48;;;;;;;6.72;3.47;;;;;;;;;;6213858;23;20515;-77
2023/12/19 07:09:34;;;;;;;9.43;4.00;;;;;;;;;;6212434;22;20042;-77
2023/12/19 07:12:19;;;;;;;7.30;3.20;;;;;;;;;;6182990;23;20013;-78
2023/12/19 07:15:05;;;;;;;5.85;3.22;;;;;;;;;;6177976;23;20391;-78
2023/12/19 07:17:50;;;;;;;5.55;2.80;;;;;;;;;;6175435;23;20001;-75
2023/12/19 07:20:36;;;;;;;9.35;3.45;;;;;;;;;;6204989;23;20051;-77
2023/12/19 07:23:23;;;;;;;6.28;3.30;;;;;;;;;;6184015;23;20472;-77
2023/12/19 07:26:18;;;;;;;6.95;3.20;;;;;;;;;;6175407;23;20087;-77
2023/12/19 07:29:04;;;;;;;8.18;3.80;;;;;;;;;;6179461;23;20035;-77
2023/12/19 07:31:51;;;;;;;6.78;4.20;;;;;;;;;;6181944;23;20007;-76
2023/12/19 07:34:36;;;;;;;8.68;3.45;;;;;;;;;;6181695;23;20031;-77
2023/12/19 07:37:21;;;;;;;7.95;3.65;;;;;;;;;;6183798;23;20000;-76
2023/12/19 07:40:10;;;;;;;6.55;3.15;;;;;;;;;;6181355;23;20007;-77
2023/12/19 07:42:55;;;;;;;7.43;3.80;;;;;;;;;;6181946;23;20055;-76
2023/12/19 07:45:40;;;;;;;11.40;3.60;;;;;;;;;;6185033;23;20027;-80
2023/12/19 07:48:25;;;;;;;10.68;4.13;;;;;;;;;;6190481;23;20249;-80
2023/12/19 07:51:19;;;;;;;7.57;3.58;;;;;;;;;;6186429;23;20333;-81
2023/12/19 07:54:04;;;;;;;7.85;3.42;;;;;;;;;;6185407;23;20011;-81
2023/12/19 07:56:50;;;;;;;7.53;4.15;;;;;;;;;;6185861;23;20011;-81
2023/12/19 07:59:35;;;;;;;7.13;4.85;;;;;;;;;;6186063;23;20430;-80
2023/12/19 08:02:21;;;;;;;8.57;4.07;;;;;;;;;;6184391;23;20086;-81
2023/12/19 08:05:09;;;;;;;8.73;4.93;;;;;;;;;;6165550;23;20004;-82
2023/12/19 08:07:55;;;;;;;9.60;5.15;;;;;;;;;;6185046;23;20004;-79
2023/12/19 08:10:42;;;;;;;11.02;4.70;;;;;;;;;;6171159;23;20012;-80
2023/12/19 08:13:27;;;;;;;10.25;4.43;;;;;;;;;;6216216;23;20008;-81
2023/12/19 08:16:13;;;;;;;9.02;4.35;;;;;;;;;;6195202;23;20010;-79
2023/12/19 08:18:58;;;;;;;8.02;4.18;;;;;;;;;;6215418;23;20413;-82
2023/12/19 08:21:49;;;;;;;10.52;4.43;;;;;;;;;;6214551;23;20343;-81
2023/12/19 08:24:34;;;;;;;10.30;5.10;;;;;;;;;;6215589;23;20004;-80
2023/12/19 08:27:22;;;;;;;12.70;5.50;;;;;;;;;;6216141;23;20000;-81
2023/12/19 08:30:09;;;;;;;9.38;5.25;;;;;;;;;;6213869;23;20003;-82
2023/12/19 08:32:54;;;;;;;7.82;4.22;;;;;;;;;;6215602;23;20000;-82
2023/12/19 08:35:39;;;;;;;11.30;5.55;;;;;;;;;;6216155;23;20004;-81
2023/12/19 08:38:25;;;;;;;11.68;5.13;;;;;;;;;;6215199;23;20031;-82
2023/12/19 08:41:10;;;;;;;11.70;4.80;;;;;;;;;;6213855;23;20000;-80
2023/12/19 08:43:55;;;;;;;9.02;4.90;;;;;;;;;;6215407;23;20022;-82
2023/12/19 08:46:40;;;;;;;10.07;5.28;;;;;;;;;;6214565;23;20011;-80
2023/12/19 08:49:25;;;;;;;9.95;4.88;;;;;;;;;;6215192;23;20065;-81
2023/12/19 08:52:11;;;;;;;9.02;4.90;;;;;;;;;;6213840;23;19996;-81
2023/12/19 08:54:56;;;;;;;7.93;4.85;;;;;;;;;;6213535;23;20028;-81
2023/12/19 08:57:42;;;;;;;12.77;5.28;;;;;;;;;;6214386;23;20000;-81
2023/12/19 09:00:28;;;;;;;13.13;5.93;;;;;;;;;;6213293;23;20008;-82
2023/12/19 09:03:13;;;;;;;10.50;5.45;;;;;;;;;;6214486;23;20002;-82
2023/12/19 09:06:00;;;;;;;11.88;6.07;;;;;;;;;;6193901;23;20002;-82
2023/12/19 09:08:45;;;;;;;14.70;6.70;;;;;;;;;;6193978;23;20696;-81
2023/12/19 09:11:32;;;;;;;12.70;6.65;;;;;;;;;;6207713;23;20398;-81
2023/12/19 09:14:17;;;;;;;13.75;7.35;;;;;;;;;;6193670;23;20488;-80
2023/12/19 09:17:02;;;;;;;14.38;8.80;;;;;;;;;;6215874;23;20000;-81
2023/12/19 09:19:48;;;;;;;13.77;7.65;;;;;;;;;;6236524;23;20010;-81
2023/12/19 09:22:33;;;;;;;19.98;7.88;;;;;;;;;;6194258;23;19996;-83
2023/12/19 09:25:19;;;;;;;15.48;7.90;;;;;;;;;;6237411;23;19997;-81
2023/12/19 09:28:05;;;;;;;17.17;9.45;;;;;;;;;;6215993;23;20380;-83
2023/12/19 09:30:50;;;;;;;15.10;8.32;;;;;;;;;;6213990;23;20035;-84
2023/12/19 09:33:39;;;;;;;14.32;8.50;;;;;;;;;;6216912;23;20000;-83
2023/12/19 09:36:27;;;;;;;19.45;10.07;;;;;;;;;;6215927;23;20004;-79
2023/12/19 09:39:15;;;;;;;16.77;9.00;;;;;;;;;;6235344;23;20011;-82
2023/12/19 09:42:01;;;;;;;16.73;10.18;;;;;;;;;;6216219;23;20014;-83
2023/12/19 09:44:50;;;;;;;16.90;9.20;;;;;;;;;;6215091;23;20004;-82
2023/12/19 09:47:38;;;;;;;17.67;10.00;;;;;;;;;;6215698;23;20328;-82
2023/12/19 09:50:25;;;;;;;17.38;9.57;;;;;;;;;;6215751;23;19996;-83
2023/12/19 09:53:10;;;;;;;16.38;8.88;;;;;;;;;;6216258;23;20433;-83
2023/12/19 09:55:55;;;;;;;13.15;8.13;;;;;;;;;;6193641;23;19996;-82
2023/12/19 09:58:42;;;;;;;16.90;9.55;;;;;;;;;;6215846;23;20008;-83
2023/12/19 10:01:28;;;;;;;15.73;8.98;;;;;;;;;;6214013;23;20087;-84
2023/12/19 10:04:13;;;;;;;15.85;9.98;;;;;;;;;;6215488;23;19996;-84
2023/12/19 10:06:58;;;;;;;19.65;10.70;;;;;;;;;;6217940;23;20031;-83
2023/12/19 10:09:54;;;;;;;17.23;10.48;;;;;;;;;;6213881;22;20008;-84
2023/12/19 10:12:49;;;;;;;19.08;10.85;;;;;;;;;;6210554;23;20441;-85
2023/12/19 10:15:34;;;;;;;16.95;10.50;;;;;;;;;;6214802;23;20425;-84
2023/12/19 10:18:21;;;;;;;19.27;10.70;;;;;;;;;;6215172;23;20425;-83
2023/12/19 10:21:13;;;;;;;15.57;9.90;;;;;;;;;;6215162;23;20008;-81
2023/12/19 10:24:06;;;;;;;20.83;9.73;;;;;;;;;;6215306;23;19996;-85
2023/12/19 10:26:57;;;;;;;18.77;9.30;;;;;;;;;;6215833;23;20004;-85
2023/12/19 10:29:42;;;;;;;21.45;11.68;;;;;;;;;;6235089;23;20374;-85
2023/12/19 10:32:27;;;;;;;15.40;9.73;;;;;;;;;;6216357;23;20000;-83
2023/12/19 10:35:13;;;;;;;16.50;10.40;;;;;;;;;;6215173;23;20011;-82
2023/12/19 10:37:58;;;;;;;22.23;10.77;;;;;;;;;;6213510;23;20462;-76
2023/12/19 10:40:43;;;;;;;16.70;11.18;;;;;;;;;;6213930;23;20039;-77
2023/12/19 10:43:37;;;;;;;22.90;12.00;;;;;;;;;;6214202;23;20000;-78
2023/12/19 10:46:27;;;;;;;17.42;10.55;;;;;;;;;;6213103;23;20000;-76
2023/12/19 10:49:12;;;;;;;18.50;9.90;;;;;;;;;;6214074;23;20006;-79
2023/12/19 10:51:59;;;;;;;15.18;9.65;;;;;;;;;;6214945;23;20000;-81
2023/12/19 10:54:45;;;;;;;19.00;11.02;;;;;;;;;;6214891;23;20003;-80
2023/12/19 10:57:32;;;;;;;16.08;10.30;;;;;;;;;;6231349;23;20050;-79
2023/12/19 11:00:24;;;;;;;17.52;10.40;;;;;;;;;;6212819;23;20000;-82
2023/12/19 11:03:09;;;;;;;18.13;11.02;;;;;;;;;;6213837;23;19996;-83
2023/12/19 11:05:55;;;;;;;19.33;9.98;;;;;;;;;;6211509;23;20376;-84
2023/12/19 11:08:42;;;;;;;18.33;10.48;;;;;;;;;;6236029;23;20000;-84
2023/12/19 11:11:34;;;;;;;19.60;11.60;;;;;;;;;;6193745;23;20020;-84
2023/12/19 11:14:23;;;;;;;18.25;10.45;;;;;;;;;;6214802;23;20079;-84
2023/12/19 11:17:12;;;;;;;18.45;10.73;;;;;;;;;;6214453;23;20008;-83
2023/12/19 11:20:03;;;;;;;18.05;10.85;;;;;;;;;;6214897;23;20004;-84
2023/12/19 11:22:51;;;;;;;19.13;11.75;;;;;;;;;;6216004;23;19993;-83
2023/12/19 11:25:43;;;;;;;19.05;11.02;;;;;;;;;;6216734;23;20032;-83
2023/12/19 11:28:35;;;;;;;18.08;11.50;;;;;;;;;;6214654;23;20004;-82
2023/12/19 11:31:27;;;;;;;19.65;11.73;;;;;;;;;;6215728;23;20083;-84
2023/12/19 11:34:22;;;;;;;22.38;12.73;;;;;;;;;;6215349;23;20091;-83
2023/12/19 11:37:08;;;;;;;20.15;12.48;;;;;;;;;;6215444;23;20361;-83
2023/12/19 11:39:53;;;;;;;23.13;11.88;;;;;;;;;;6213813;23;20050;-84
2023/12/19 11:42:38;;;;;;;20.58;12.70;;;;;;;;;;6214710;23;20039;-84
2023/12/19 11:45:26;;;;;;;22.67;12.90;;;;;;;;;;6215181;23;20000;-81
2023/12/19 11:48:31;;;;;;;24.17;13.65;;;;;;;;;;6213125;23;20118;-82
2023/12/19 11:51:35;;;;;;;20.17;12.13;;;;;;;;;;6193102;23;20546;-85
2023/12/19 11:54:20;;;;;;;20.10;12.85;;;;;;;;;;6215761;23;20000;-84
2023/12/19 11:57:06;;;;;;;22.05;12.98;;;;;;;;;;6215214;23;20027;-84
2023/12/19 11:59:52;;;;;;;20.50;12.48;;;;;;;;;;6214963;23;20437;-82
2023/12/19 12:02:37;;;;;;;21.45;12.90;;;;;;;;;;6214433;23;20050;-84
2023/12/19 12:05:22;;;;;;;18.67;11.18;;;;;;;;;;6210456;23;20019;-82
2023/12/19 12:08:12;;;;;;;16.65;10.02;;;;;;;;;;6213370;23;20004;-82
2023/12/19 12:10:58;;;;;;;16.52;10.90;;;;;;;;;;6212629;23;20039;-82
2023/12/19 12:13:58;;;;;;;18.85;11.27;;;;;;;;;;6212602;23;20031;-82
2023/12/19 12:16:43;;;;;;;21.58;12.15;;;;;;;;;;6213035;23;20014;-82
2023/12/19 12:19:29;;;;;;;17.15;10.50;;;;;;;;;;6213146;23;20031;-81
2023/12/19 12:22:14;;;;;;;19.65;11.57;;;;;;;;;;6213135;23;20004;-81
2023/12/19 12:25:00;;;;;;;18.02;10.90;;;;;;;;;;6213755;23;20050;-82
2023/12/19 12:27:46;;;;;;;17.52;10.35;;;;;;;;;;6213685;23;20067;-81
2023/12/19 12:30:33;;;;;;;16.88;11.82;;;;;;;;;;6214641;23;20061;-82
2023/12/19 12:33:18;;;;;;;18.67;11.07;;;;;;;;;;6192186;23;20011;-82
2023/12/19 12:36:08;;;;;;;21.77;11.68;;;;;;;;;;6213783;23;20000;-81
2023/12/19 12:38:56;;;;;;;17.67;10.55;;;;;;;;;;6213363;23;20440;-81
2023/12/19 12:41:41;;;;;;;20.88;12.13;;;;;;;;;;6215994;23;20011;-81
2023/12/19 12:44:26;;;;;;;19.17;11.50;;;;;;;;;;6216377;23;20008;-80
2023/12/19 12:47:23;;;;;;;17.75;11.75;;;;;;;;;;6214749;23;20008;-81
2023/12/19 12:50:08;;;;;;;19.40;11.68;;;;;;;;;;6215498;23;20042;-82
2023/12/19 12:52:53;;;;;;;20.25;12.05;;;;;;;;;;6215881;23;20371;-81
2023/12/19 12:55:39;;;;;;;17.48;10.93;;;;;;;;;;6215712;23;19999;-81
2023/12/19 12:58:24;;;;;;;17.38;11.80;;;;;;;;;;6215859;23;20000;-81
2023/12/19 13:01:09;;;;;;;21.58;11.43;;;;;;;;;;6214818;23;20000;-82
2023/12/19 13:03:54;;;;;;;19.02;11.68;;;;;;;;;;6214585;23;20004;-80
2023/12/19 13:06:46;;;;;;;19.63;10.18;;;;;;;;;;6215537;23;20666;-80
2023/12/19 13:09:32;;;;;;;18.05;11.15;;;;;;;;;;6215863;22;20058;-81
2023/12/19 13:12:17;;;;;;;16.70;11.75;;;;;;;;;;6214797;23;20027;-85
2023/12/19 13:15:03;;;;;;;18.10;10.90;;;;;;;;;;6194528;23;19997;-81
2023/12/19 13:17:48;;;;;;;18.27;11.52;;;;;;;;;;6214879;23;20071;-80
2023/12/19 13:20:34;;;;;;;17.63;11.60;;;;;;;;;;6214991;23;20000;-80
2023/12/19 13:23:19;;;;;;;19.67;11.35;;;;;;;;;;6214106;23;20000;-83
2023/12/19 13:26:04;;;;;;;16.95;11.23;;;;;;;;;;6215955;23;20000;-81
2023/12/19 13:28:50;;;;;;;20.63;11.35;;;;;;;;;;6216024;23;20004;-81
2023/12/19 13:31:37;;;;;;;18.27;11.07;;;;;;;;;;6214916;23;20000;-82
2023/12/19 13:34:23;;;;;;;18.27;11.45;;;;;;;;;;6214645;23;20007;-81
2023/12/19 13:37:08;;;;;;;23.30;12.70;;;;;;;;;;6214508;23;20008;-83
2023/12/19 13:39:54;;;;;;;18.85;10.90;;;;;;;;;;6215077;23;20004;-83
2023/12/19 13:42:39;;;;;;;22.52;12.15;;;;;;;;;;6215680;23;19996;-83
2023/12/19 13:45:28;;;;;;;19.70;12.07;;;;;;;;;;6236962;23;20622;-81
2023/12/19 13:48:14;;;;;;;18.58;11.40;;;;;;;;;;6215317;23;20590;-81
2023/12/19 13:51:00;;;;;;;20.63;11.82;;;;;;;;;;6214700;23;20004;-81
2023/12/19 13:53:46;;;;;;;19.40;11.27;;;;;;;;;;6215243;23;20333;-81
2023/12/19 13:56:31;;;;;;;19.83;12.20;;;;;;;;;;6214021;23;20526;-83
2023/12/19 13:59:17;;;;;;;19.17;11.32;;;;;;;;;;6215398;23;20003;-80
2023/12/19 14:02:03;;;;;;;20.83;12.38;;;;;;;;;;6213992;23;20065;-81
2023/12/19 14:04:48;;;;;;;22.05;12.63;;;;;;;;;;6215594;23;20061;-81
2023/12/19 14:07:38;;;;;;;17.77;10.85;;;;;;;;;;6214277;23;20008;-81
2023/12/19 14:10:24;;;;;;;16.92;10.50;;;;;;;;;;6194231;23;20013;-81
2023/12/19 14:13:09;;;;;;;16.15;11.07;;;;;;;;;;6214075;23;20000;-82
2023/12/19 14:15:55;;;;;;;19.48;10.93;;;;;;;;;;6215151;23;20390;-81
2023/12/19 14:18:40;;;;;;;15.98;10.30;;;;;;;;;;6193367;23;20007;-80
2023/12/19 14:21:25;;;;;;;18.15;11.23;;;;;;;;;;6214094;23;20004;-81
2023/12/19 14:24:10;;;;;;;16.13;9.38;;;;;;;;;;6213985;23;20007;-80
2023/12/19 14:26:55;;;;;;;19.00;9.77;;;;;;;;;;6235706;23;20034;-82
2023/12/19 14:29:41;;;;;;;18.75;10.35;;;;;;;;;;6214087;23;20000;-81
2023/12/19 14:32:27;;;;;;;19.23;9.75;;;;;;;;;;6214042;23;19996;-81
2023/12/19 14:35:14;;;;;;;16.42;9.93;;;;;;;;;;6215246;23;20397;-80
2023/12/19 14:37:59;;;;;;;16.00;9.18;;;;;;;;;;6214215;23;20336;-80
2023/12/19 14:40:44;;;;;;;15.80;9.63;;;;;;;;;;6214925;23;20062;-80
2023/12/19 14:43:29;;;;;;;14.02;8.55;;;;;;;;;;6213748;23;19999;-81
2023/12/19 14:46:15;;;;;;;14.75;8.30;;;;;;;;;;6214264;23;20043;-78
2023/12/19 14:49:00;;;;;;;19.85;9.52;;;;;;;;;;6214417;23;20007;-80
2023/12/19 14:51:45;;;;;;;16.95;9.75;;;;;;;;;;6215079;23;20035;-80
2023/12/19 14:54:30;;;;;;;12.80;8.63;;;;;;;;;;6213902;23;20078;-80
2023/12/19 14:57:16;;;;;;;15.00;8.73;;;;;;;;;;6214751;23;20012;-82
2023/12/19 15:00:01;;;;;;;14.77;8.75;;;;;;;;;;6214244;23;20040;-81
2023/12/19 15:02:47;;;;;;;18.10;8.80;;;;;;;;;;6214180;23;20716;-82
2023/12/19 15:05:32;;;;;;;16.77;8.68;;;;;;;;;;6215378;23;20039;-82
2023/12/19 15:08:17;;;;;;;15.35;9.15;;;;;;;;;;6193151;23;20504;-82
2023/12/19 15:11:05;;;;;;;15.13;8.07;;;;;;;;;;6214553;23;20027;-81
2023/12/19 15:13:52;;;;;;;14.15;8.05;;;;;;;;;;6216357;23;20011;-82
2023/12/19 15:16:38;;;;;;;16.40;9.10;;;;;;;;;;6227320;23;20004;-79
2023/12/19 15:19:23;;;;;;;17.63;7.95;;;;;;;;;;6222115;23;20050;-79
2023/12/19 15:22:08;;;;;;;17.10;8.60;;;;;;;;;;6231985;23;20010;-81
2023/12/19 15:24:53;;;;;;;13.90;8.38;;;;;;;;;;6242986;23;20022;-81
2023/12/19 15:27:39;;;;;;;15.07;8.45;;;;;;;;;;6236265;23;20011;-80
2023/12/19 15:30:24;;;;;;;15.50;8.82;;;;;;;;;;6216871;23;20015;-79
2023/12/19 15:33:11;;;;;;;14.60;8.38;;;;;;;;;;6215425;23;20015;-78
2023/12/19 15:35:56;;;;;;;14.73;7.72;;;;;;;;;;6236246;23;20031;-82
2023/12/19 15:38:41;;;;;;;14.15;8.65;;;;;;;;;;6194583;23;20008;-82
2023/12/19 15:41:26;;;;;;;13.00;8.00;;;;;;;;;;6215087;23;20079;-81
2023/12/19 15:44:12;;;;;;;15.15;8.57;;;;;;;;;;6215077;23;20005;-80
2023/12/19 15:46:58;;;;;;;16.45;8.35;;;;;;;;;;6214657;23;19992;-81
2023/12/19 15:49:43;;;;;;;14.63;8.18;;;;;;;;;;6235532;23;20000;-82
2023/12/19 15:52:28;;;;;;;15.25;7.88;;;;;;;;;;6214559;23;20039;-82
2023/12/19 15:55:14;;;;;;;13.55;8.07;;;;;;;;;;6214607;23;20079;-82
2023/12/19 15:57:59;;;;;;;10.95;6.78;;;;;;;;;;6235331;23;20400;-82
2023/12/19 16:00:44;;;;;;;15.20;8.77;;;;;;;;;;6236382;23;20004;-81
2023/12/19 16:03:29;;;;;;;16.00;8.90;;;;;;;;;;6215242;23;19996;-82
2023/12/19 16:06:15;;;;;;;19.92;8.73;;;;;;;;;;6215852;23;19996;-81
2023/12/19 16:09:00;;;;;;;18.90;8.88;;;;;;;;;;6213345;23;20303;-81
2023/12/19 16:11:46;;;;;;;18.25;9.68;;;;;;;;;;6214245;23;20052;-81
2023/12/19 16:14:31;;;;;;;14.77;9.00;;;;;;;;;;6214484;23;20091;-81
2023/12/19 16:17:17;;;;;;;16.55;8.93;;;;;;;;;;6236913;23;19996;-80
2023/12/19 16:20:02;;;;;;;14.85;8.40;;;;;;;;;;6216007;23;20083;-81
2023/12/19 16:22:48;;;;;;;13.95;7.80;;;;;;;;;;6215726;23;19996;-81